createdAt,value
2023-07-14T07:04:09.001Z,92.27
2023-07-14T07:05:08.965Z,91.74
2023-07-14T07:07:01.830Z,91.25
2023-07-14T07:08:01.781Z,91.60
2023-07-14T07:09:54.683Z,91.02
2023-07-14T07:10:54.623Z,91.11
2023-07-14T07:12:47.492Z,90.53
2023-07-14T07:13:47.477Z,90.05
2023-07-14T07:15:40.372Z,90.72
2023-07-14T07:16:40.367Z,90.34
2023-07-14T07:18:33.222Z,88.70
2023-07-14T07:19:43.367Z,88.12
2023-07-14T07:21:27.033Z,86.96
2023-07-14T07:22:27.111Z,87.35
2023-07-14T07:24:34.838Z,88.22
2023-07-14T07:25:34.784Z,87.16
2023-07-14T07:29:13.881Z,88.99
2023-07-14T07:30:13.843Z,88.51
2023-07-14T07:32:07.632Z,87.74
2023-07-14T07:33:07.618Z,86.15
2023-07-14T07:35:00.550Z,87.40
2023-07-14T07:36:00.384Z,87.02
2023-07-14T07:37:53.306Z,89.91
2023-07-14T07:38:53.246Z,87.93
2023-07-14T07:39:53.232Z,86.43
2023-07-14T07:40:53.207Z,86.52
2023-07-14T07:41:53.201Z,85.75
2023-07-14T07:42:53.202Z,84.98
2023-07-14T07:43:53.146Z,84.31
2023-07-14T07:44:53.128Z,84.21
2023-07-14T07:45:53.148Z,83.05
2023-07-14T07:46:53.172Z,83.44
2023-07-14T07:47:53.112Z,83.05
2023-07-14T07:48:53.048Z,83.34
2023-07-14T07:49:53.031Z,84.21
2023-07-14T07:50:53.073Z,83.83
2023-07-14T07:51:52.992Z,82.96
2023-07-14T07:52:52.969Z,83.25
2023-07-14T07:53:52.951Z,84.35
2023-07-14T07:54:52.933Z,84.44
2023-07-14T07:55:52.911Z,83.29
2023-07-14T07:56:52.891Z,83.39
2023-07-14T07:57:53.832Z,83.00
2023-07-14T07:58:53.251Z,83.29
2023-07-14T07:59:53.516Z,83.44
2023-07-14T08:00:54.701Z,83.73
2023-07-14T08:01:53.143Z,84.17
2023-07-14T08:02:53.318Z,84.94
2023-07-14T08:03:53.153Z,85.75
2023-07-14T08:04:52.921Z,86.66
2023-07-14T08:05:53.003Z,85.22
2023-07-14T08:06:52.819Z,85.27
2023-07-14T08:07:52.766Z,85.22
2023-07-14T08:08:52.788Z,85.70
2023-07-14T08:09:52.640Z,85.22
2023-07-14T08:10:52.625Z,85.41
2023-07-14T08:11:52.622Z,85.06
2023-07-14T08:12:52.578Z,84.39
2023-07-14T08:13:52.583Z,83.81
2023-07-14T08:14:52.563Z,83.62
2023-07-14T08:15:52.811Z,84.30
2023-07-14T08:16:52.539Z,83.96
2023-07-14T08:17:52.518Z,84.64
2023-07-14T08:18:53.261Z,84.11
2023-07-14T08:19:52.450Z,85.46
2023-07-14T08:20:52.439Z,85.22
2023-07-14T08:21:52.412Z,85.50
2023-07-14T08:22:52.460Z,84.44
2023-07-14T08:23:52.382Z,85.02
2023-07-14T08:24:52.394Z,85.55
2023-07-14T08:25:52.336Z,84.20
2023-07-14T08:26:52.313Z,84.00
2023-07-14T08:27:52.318Z,83.33
2023-07-14T08:28:52.281Z,83.33
2023-07-14T08:29:52.266Z,84.00
2023-07-14T08:30:52.241Z,84.48
2023-07-14T08:31:52.288Z,83.52
2023-07-14T08:32:52.260Z,83.72
2023-07-14T08:33:52.832Z,84.30
2023-07-14T08:34:52.164Z,84.24
2023-07-14T08:35:52.165Z,83.08
2023-07-14T08:36:52.133Z,83.47
2023-07-14T08:37:52.130Z,83.23
2023-07-14T08:38:52.111Z,83.08
2023-07-14T08:41:39.408Z,83.37
2023-07-14T08:42:32.219Z,83.08
2023-07-14T08:44:25.092Z,82.89
2023-07-14T08:45:25.065Z,82.89
2023-07-14T08:46:25.069Z,82.46
2023-07-14T08:47:25.075Z,83.33
2023-07-14T08:48:25.012Z,83.81
2023-07-14T08:49:24.993Z,83.33
2023-07-14T08:50:26.908Z,83.56
2023-07-14T08:51:24.956Z,83.27
2023-07-14T08:52:24.943Z,82.64
2023-07-14T08:53:24.927Z,81.57
2023-07-14T08:54:24.932Z,81.09
2023-07-14T08:55:24.878Z,81.42
2023-07-14T08:56:24.878Z,80.84
2023-07-14T08:57:24.848Z,80.46
2023-07-14T08:58:24.831Z,80.26
2023-07-14T08:59:24.809Z,80.07
2023-07-14T09:00:24.791Z,79.78
2023-07-14T09:01:24.814Z,78.81
2023-07-14T09:02:24.814Z,78.61
2023-07-14T09:03:24.730Z,79.20
2023-07-14T09:04:24.753Z,78.48
2023-07-14T09:05:24.699Z,79.16
2023-07-14T09:06:24.683Z,79.45
2023-07-14T09:07:24.678Z,79.58
2023-07-14T09:08:24.646Z,79.58
2023-07-14T09:09:24.641Z,79.29
2023-07-14T09:10:24.606Z,78.46
2023-07-14T09:11:24.589Z,78.66
2023-07-14T09:12:24.584Z,78.46
2023-07-14T09:13:24.552Z,78.85
2023-07-14T09:14:24.531Z,78.42
2023-07-14T09:15:24.518Z,78.27
2023-07-14T09:16:24.513Z,78.36
2023-07-14T09:17:24.509Z,77.55
2023-07-14T09:18:24.576Z,78.52
2023-07-14T09:19:24.454Z,78.03
2023-07-14T09:20:24.437Z,77.17
2023-07-14T09:21:24.428Z,77.65
2023-07-14T09:22:24.400Z,77.90
2023-07-14T09:23:24.393Z,78.67
2023-07-14T09:24:24.353Z,77.90
2023-07-14T09:25:24.347Z,78.42
2023-07-14T09:26:24.321Z,78.13
2023-07-14T09:27:24.300Z,74.30
2023-07-14T09:28:24.311Z,73.85
2023-07-14T09:29:24.262Z,72.83
2023-07-14T09:30:24.250Z,71.86
2023-07-14T09:31:24.324Z,71.80
2023-07-14T09:32:24.247Z,69.50
2023-07-14T09:33:24.196Z,70.37
2023-07-14T09:34:24.185Z,69.60
2023-07-14T09:35:24.160Z,70.28
2023-07-14T09:36:24.149Z,69.92
2023-07-14T09:37:24.132Z,71.37
2023-07-14T09:38:24.105Z,71.28
2023-07-14T09:39:24.088Z,71.14
2023-07-14T09:40:24.071Z,72.50
2023-07-14T09:41:24.053Z,71.82
2023-07-14T09:42:24.125Z,71.72
2023-07-14T09:43:24.027Z,71.92
2023-07-14T09:44:24.005Z,72.11
2023-07-14T09:45:23.985Z,71.40
2023-07-14T09:46:23.981Z,70.30
2023-07-14T09:47:24.050Z,70.43
2023-07-14T09:48:23.930Z,70.40
2023-07-14T09:49:23.941Z,69.85
2023-07-14T09:50:23.897Z,69.01
2023-07-14T09:51:23.882Z,68.47
2023-07-14T09:52:23.862Z,68.43
2023-07-14T09:53:23.878Z,69.24
2023-07-14T09:54:23.827Z,69.53
2023-07-14T09:55:23.824Z,69.11
2023-07-14T09:56:23.786Z,69.34
2023-07-14T09:57:37.853Z,69.73
2023-07-14T09:58:23.780Z,69.34
2023-07-14T09:59:23.753Z,70.01
2023-07-14T10:00:23.718Z,70.37
2023-07-14T10:01:23.773Z,69.89
2023-07-14T10:02:23.719Z,69.82
2023-07-14T10:04:23.668Z,69.82
2023-07-14T10:05:23.634Z,70.34
2023-07-14T10:06:23.624Z,69.76
2023-07-14T10:07:23.624Z,68.50
2023-07-14T10:08:23.585Z,69.18
2023-07-14T10:09:23.565Z,68.12
2023-07-14T10:10:23.549Z,67.92
2023-07-14T10:11:23.530Z,67.53
2023-07-14T10:12:23.512Z,66.85
2023-07-14T10:13:23.515Z,67.02
2023-07-14T10:14:23.487Z,66.24
2023-07-14T10:15:23.462Z,66.92
2023-07-14T10:16:23.449Z,67.21
2023-07-14T10:17:23.523Z,66.82
2023-07-14T10:18:23.556Z,67.21
2023-07-14T10:19:23.431Z,67.40
2023-07-14T10:20:23.380Z,67.69
2023-07-14T10:21:23.363Z,68.08
2023-07-14T10:22:23.355Z,67.98
2023-07-14T10:23:23.327Z,67.69
2023-07-14T10:24:23.331Z,67.21
2023-07-14T10:25:23.293Z,66.72
2023-07-14T10:26:23.270Z,66.63
2023-07-14T10:27:23.252Z,67.44
2023-07-14T10:28:23.234Z,66.95
2023-07-14T10:29:23.249Z,66.47
2023-07-14T10:30:23.205Z,67.11
2023-07-14T10:31:23.221Z,66.72
2023-07-14T10:32:23.182Z,67.11
2023-07-14T10:33:23.175Z,68.08
2023-07-14T10:34:23.133Z,67.69
2023-07-14T10:35:23.115Z,67.69
2023-07-14T10:36:23.098Z,67.88
2023-07-14T10:37:23.088Z,68.18
2023-07-14T10:38:23.069Z,67.88
2023-07-14T10:39:23.046Z,67.69
2023-07-14T10:40:23.030Z,67.50
2023-07-14T10:41:23.146Z,67.79
2023-07-14T10:42:22.993Z,67.21
2023-07-14T10:43:22.974Z,67.60
2023-07-14T10:44:22.959Z,67.60
2023-07-14T10:45:22.943Z,66.56
2023-07-14T10:46:22.973Z,67.44
2023-07-14T10:47:22.962Z,67.24
2023-07-14T10:48:22.886Z,67.79
2023-07-14T10:49:22.868Z,67.82
2023-07-14T10:50:22.849Z,68.30
2023-07-14T10:51:22.839Z,67.72
2023-07-14T10:52:22.818Z,67.34
2023-07-14T10:53:22.802Z,67.95
2023-07-14T10:54:22.796Z,67.37
2023-07-14T10:55:22.771Z,66.37
2023-07-14T10:56:22.754Z,66.27
2023-07-14T10:57:22.733Z,66.63
2023-07-14T10:58:22.709Z,67.44
2023-07-14T10:59:22.693Z,66.66
2023-07-14T11:00:22.680Z,66.66
2023-07-14T11:01:22.698Z,66.47
2023-07-14T11:02:22.744Z,66.66
2023-07-14T11:03:22.690Z,66.75
2023-07-14T11:04:22.636Z,67.63
2023-07-14T11:05:22.637Z,66.89
2023-07-14T11:06:22.579Z,66.89
2023-07-14T11:07:22.559Z,66.20
2023-07-14T11:08:22.540Z,66.69
2023-07-14T11:09:22.522Z,66.75
2023-07-14T11:10:22.518Z,68.47
2023-07-14T11:11:22.530Z,68.18
2023-07-14T11:12:22.476Z,68.63
2023-07-14T11:13:22.451Z,68.43
2023-07-14T11:14:22.434Z,69.17
2023-07-14T11:15:22.422Z,69.66
2023-07-14T11:16:22.423Z,70.62
2023-07-14T11:17:22.381Z,69.66
2023-07-14T11:18:22.369Z,69.37
2023-07-14T11:19:23.623Z,70.53
2023-07-14T11:20:22.341Z,69.95
2023-07-14T11:21:22.318Z,69.75
2023-07-14T11:22:22.778Z,70.37
2023-07-14T11:23:22.286Z,69.50
2023-07-14T11:24:22.263Z,69.43
2023-07-14T11:25:22.255Z,69.53
2023-07-14T11:26:22.235Z,69.63
2023-07-14T11:27:22.210Z,68.60
2023-07-14T11:28:22.199Z,68.40
2023-07-14T11:29:22.198Z,68.50
2023-07-14T11:30:22.193Z,68.73
2023-07-14T11:31:22.144Z,67.40
2023-07-14T11:32:22.233Z,67.44
2023-07-14T11:33:22.104Z,67.14
2023-07-14T11:34:22.102Z,65.89
2023-07-14T11:35:22.089Z,65.40
2023-07-14T11:36:22.052Z,66.02
2023-07-14T11:37:22.039Z,65.24
2023-07-14T11:38:22.019Z,64.33
2023-07-14T11:39:22.000Z,65.40
2023-07-14T11:40:21.984Z,65.20
2023-07-14T11:44:32.431Z,65.92
2023-07-14T11:45:32.377Z,66.63
2023-07-14T11:46:32.402Z,66.14
2023-07-14T11:47:32.356Z,66.24
2023-07-14T11:48:32.329Z,65.85
2023-07-14T11:49:32.386Z,65.37
2023-07-14T11:51:33.411Z,65.53
2023-07-14T11:52:32.274Z,65.92
2023-07-14T11:53:32.239Z,66.44
2023-07-14T11:54:32.226Z,65.17
2023-07-14T11:55:32.208Z,65.95
2023-07-14T11:56:32.191Z,65.95
2023-07-14T11:57:32.213Z,65.75
2023-07-14T11:58:32.212Z,65.11
2023-07-14T11:59:32.150Z,65.59
2023-07-14T12:00:32.124Z,64.26
2023-07-14T12:01:32.118Z,64.46
2023-07-14T12:02:32.235Z,64.26
2023-07-14T12:03:34.360Z,64.30
2023-07-14T12:04:32.122Z,64.40
2023-07-14T12:05:32.038Z,64.30
2023-07-14T12:06:32.031Z,64.11
2023-07-14T12:07:32.694Z,64.17
2023-07-14T12:08:31.996Z,64.04
2023-07-14T12:09:31.973Z,64.14
2023-07-14T12:10:31.954Z,64.62
2023-07-14T12:11:41.336Z,65.11
2023-07-14T12:12:31.919Z,64.82
2023-07-14T12:13:31.902Z,65.20
2023-07-14T12:14:31.884Z,65.11
2023-07-14T12:15:31.874Z,65.24
2023-07-14T12:16:31.874Z,66.20
2023-07-14T12:17:31.909Z,66.95
2023-07-14T12:18:31.976Z,67.05
2023-07-14T12:19:31.818Z,67.57
2023-07-14T12:20:31.815Z,67.47
2023-07-14T12:21:32.248Z,67.34
2023-07-14T12:22:31.771Z,67.34
2023-07-14T12:23:31.738Z,66.85
2023-07-14T12:24:31.731Z,66.56
2023-07-14T12:25:31.704Z,66.47
2023-07-14T12:26:31.699Z,66.82
2023-07-14T12:27:31.666Z,67.11
2023-07-14T12:28:31.691Z,67.79
2023-07-14T12:29:41.177Z,67.50
2023-07-14T12:30:31.624Z,67.60
2023-07-14T12:31:31.614Z,67.44
2023-07-14T12:32:31.603Z,66.56
2023-07-14T12:33:31.562Z,67.30
2023-07-14T12:34:31.558Z,67.82
2023-07-14T12:35:31.531Z,67.63
2023-07-14T12:36:31.514Z,67.88
2023-07-14T12:37:31.491Z,67.69
2023-07-14T12:38:31.485Z,67.53
2023-07-14T12:39:31.464Z,67.44
2023-07-14T12:40:31.439Z,67.53
2023-07-14T12:41:31.425Z,67.44
2023-07-14T12:42:31.409Z,67.53
2023-07-14T12:43:31.393Z,66.75
2023-07-14T12:44:31.375Z,66.40
2023-07-14T12:45:31.359Z,66.50
2023-07-14T12:46:31.362Z,66.69
2023-07-14T12:47:31.344Z,66.69
2023-07-14T12:48:31.304Z,66.50
2023-07-14T12:49:31.286Z,67.27
2023-07-14T12:50:31.268Z,66.75
2023-07-14T12:51:31.255Z,66.75
2023-07-14T12:52:31.254Z,67.11
2023-07-14T12:53:31.216Z,67.50
2023-07-14T12:54:31.199Z,67.50
2023-07-14T12:55:31.195Z,67.30
2023-07-14T12:56:31.193Z,67.60
2023-07-14T12:57:31.149Z,67.98
2023-07-14T12:58:31.128Z,68.18
2023-07-14T12:59:31.124Z,68.18
2023-07-14T13:00:31.096Z,67.98
2023-07-14T13:01:31.138Z,67.98
2023-07-14T13:02:31.072Z,67.98
2023-07-14T13:03:31.044Z,67.69
2023-07-14T13:04:31.035Z,68.08
2023-07-14T13:05:31.008Z,68.47
2023-07-14T13:06:30.990Z,68.37
2023-07-14T13:07:30.972Z,68.18
2023-07-14T13:08:30.952Z,67.92
2023-07-14T13:09:30.938Z,67.60
2023-07-14T13:10:30.915Z,68.21
2023-07-14T13:11:30.951Z,68.12
2023-07-14T13:12:30.886Z,69.37
2023-07-14T13:13:30.857Z,68.54
2023-07-14T13:14:30.844Z,68.15
2023-07-14T13:15:30.827Z,68.05
2023-07-14T13:16:30.942Z,67.85
2023-07-14T13:17:30.829Z,67.47
2023-07-14T13:18:30.815Z,67.08
2023-07-14T13:19:30.758Z,67.05
2023-07-14T13:20:30.754Z,66.66
2023-07-14T13:21:30.724Z,67.50
2023-07-14T13:22:30.788Z,67.79
2023-07-14T13:23:30.690Z,67.53
2023-07-14T13:24:30.672Z,68.50
2023-07-14T13:25:30.648Z,67.72
2023-07-14T13:26:30.631Z,68.30
2023-07-14T13:27:30.616Z,67.53
2023-07-14T13:28:30.597Z,67.05
2023-07-14T13:29:30.585Z,67.53
2023-07-14T13:30:30.589Z,67.08
2023-07-14T13:31:30.569Z,66.60
2023-07-14T13:32:30.623Z,67.57
2023-07-14T13:33:30.509Z,67.37
2023-07-14T13:34:30.491Z,67.27
2023-07-14T13:35:33.940Z,66.69
2023-07-14T13:36:30.467Z,66.79
2023-07-14T13:37:30.464Z,67.27
2023-07-14T13:38:30.420Z,66.53
2023-07-14T13:39:30.418Z,66.05
2023-07-14T13:40:30.392Z,66.44
2023-07-14T13:41:30.371Z,66.63
2023-07-14T13:42:30.411Z,65.85
2023-07-14T13:43:30.337Z,66.44
2023-07-14T13:44:30.324Z,66.53
2023-07-14T13:45:30.323Z,66.34
2023-07-14T13:46:30.305Z,65.72
2023-07-14T13:47:30.294Z,66.11
2023-07-14T13:48:30.251Z,67.08
2023-07-14T13:49:30.232Z,67.37
2023-07-14T13:50:30.218Z,67.11
2023-07-14T13:51:30.207Z,66.34
2023-07-14T13:52:30.180Z,66.53
2023-07-14T13:53:30.165Z,66.63
2023-07-14T13:54:30.143Z,66.72
2023-07-14T13:55:30.140Z,65.95
2023-07-14T13:56:30.136Z,66.05
2023-07-14T13:57:30.099Z,66.53
2023-07-14T13:58:30.070Z,67.54
2023-07-14T13:59:30.060Z,66.95
2023-07-14T14:00:30.041Z,66.30
2023-07-14T14:01:30.105Z,65.79
2023-07-14T14:02:30.033Z,65.33
2023-07-14T14:03:30.028Z,64.07
2023-07-14T14:04:30.035Z,63.62
2023-07-14T14:05:29.961Z,62.84
2023-07-14T14:06:29.939Z,63.23
2023-07-14T14:07:29.926Z,62.55
2023-07-14T14:08:29.913Z,62.38
2023-07-14T14:09:29.887Z,61.15
2023-07-14T14:10:29.878Z,61.44
2023-07-14T14:11:29.854Z,60.77
2023-07-14T14:12:29.884Z,60.05
2023-07-14T14:13:29.829Z,60.15
2023-07-14T14:14:29.804Z,60.54
2023-07-14T14:15:29.788Z,60.90
2023-07-14T14:16:29.785Z,61.68
2023-07-14T14:17:29.801Z,61.22
2023-07-14T14:18:29.737Z,61.02
2023-07-14T14:19:29.733Z,61.41
2023-07-14T14:20:29.717Z,61.22
2023-07-14T14:21:29.690Z,61.32
2023-07-14T14:22:29.685Z,61.44
2023-07-14T14:23:29.657Z,61.64
2023-07-14T14:24:29.639Z,60.83
2023-07-14T14:25:29.714Z,61.41
2023-07-14T14:26:29.607Z,60.44
2023-07-14T14:27:29.592Z,60.05
2023-07-14T14:28:29.596Z,59.67
2023-07-14T14:29:29.565Z,59.34
2023-07-14T14:30:29.545Z,60.41
2023-07-14T14:31:29.571Z,61.32
2023-07-14T14:32:29.504Z,59.67
2023-07-14T14:33:29.565Z,59.86
2023-07-14T14:34:29.478Z,59.86
2023-07-14T14:35:29.473Z,59.86
2023-07-14T14:36:29.440Z,58.40
2023-07-14T14:37:29.423Z,58.50
2023-07-14T14:38:43.999Z,58.40
2023-07-14T14:39:29.395Z,57.75
2023-07-14T14:40:29.383Z,57.82
2023-07-14T14:41:29.408Z,58.31
2023-07-14T14:42:29.345Z,58.59
2023-07-14T14:43:29.402Z,58.50
2023-07-14T14:44:29.317Z,59.28
2023-07-14T14:45:29.296Z,58.59
2023-07-14T14:46:29.319Z,58.79
2023-07-14T14:47:29.296Z,59.67
2023-07-14T14:48:40.198Z,59.18
2023-07-14T14:49:29.227Z,58.69
2023-07-14T14:50:29.218Z,58.89
2023-07-14T14:51:29.208Z,58.01
2023-07-14T14:52:29.187Z,58.59
2023-07-14T14:53:29.175Z,58.11
2023-07-14T14:54:29.149Z,58.47
2023-07-14T14:55:29.133Z,59.15
2023-07-14T14:56:29.120Z,58.67
2023-07-14T14:57:29.099Z,58.64
2023-07-14T14:58:29.088Z,59.41
2023-07-14T14:59:29.071Z,59.41
2023-07-14T15:00:29.046Z,58.54
2023-07-14T15:01:29.055Z,59.31
2023-07-14T15:02:29.090Z,59.41
2023-07-14T15:03:29.057Z,59.25
2023-07-14T15:04:29.017Z,59.44
2023-07-14T15:05:28.968Z,58.59
2023-07-14T15:06:28.962Z,58.59
2023-07-14T15:07:28.932Z,58.59
2023-07-14T15:08:28.915Z,57.92
2023-07-14T15:09:28.909Z,57.43
2023-07-14T15:10:28.883Z,58.21
2023-07-14T15:11:28.874Z,58.11
2023-07-14T15:12:28.856Z,58.40
2023-07-14T15:13:28.837Z,58.21
2023-07-14T15:14:28.835Z,58.11
2023-07-14T15:15:28.825Z,57.89
2023-07-14T15:16:28.832Z,58.95
2023-07-14T15:17:28.789Z,58.67
2023-07-14T15:18:28.757Z,58.57
2023-07-14T15:19:28.742Z,58.40
2023-07-14T15:20:28.722Z,58.40
2023-07-14T15:21:28.705Z,57.72
2023-07-14T15:22:28.716Z,58.01
2023-07-14T15:23:28.693Z,58.31
2023-07-14T15:24:28.657Z,57.53
2023-07-14T15:25:28.640Z,57.33
2023-07-14T15:26:28.629Z,57.33
2023-07-14T15:27:28.618Z,56.95
2023-07-14T15:28:28.586Z,56.49
2023-07-14T15:29:28.573Z,56.20
2023-07-14T15:30:28.549Z,56.59
2023-07-14T15:31:28.567Z,56.41
2023-07-14T15:32:28.598Z,55.93
2023-07-14T15:33:28.564Z,55.93
2023-07-14T15:34:28.488Z,56.03
2023-07-14T15:35:29.614Z,56.03
2023-07-14T15:36:28.465Z,55.93
2023-07-14T15:37:28.452Z,55.51
2023-07-14T15:38:28.424Z,55.90
2023-07-14T15:39:28.405Z,56.20
2023-07-14T15:40:28.387Z,55.51
2023-07-14T15:41:28.376Z,56.49
2023-07-14T15:42:28.360Z,56.95
2023-07-14T15:43:28.347Z,57.46
2023-07-14T15:44:28.338Z,57.07
2023-07-14T15:45:28.325Z,57.07
2023-07-14T15:46:28.326Z,57.07
2023-07-14T15:47:28.326Z,56.77
2023-07-14T15:48:40.379Z,56.59
2023-07-14T15:49:28.245Z,56.49
2023-07-14T15:50:28.229Z,56.20
2023-07-14T15:51:28.212Z,56.68
2023-07-14T15:52:28.206Z,56.49
2023-07-14T15:53:28.172Z,57.07
2023-07-14T15:54:28.159Z,56.87
2023-07-14T15:55:28.144Z,56.49
2023-07-14T15:56:28.147Z,56.51
2023-07-14T15:57:28.110Z,56.41
2023-07-14T15:58:28.093Z,55.64
2023-07-14T15:59:28.073Z,56.59
2023-07-14T16:00:28.115Z,56.77
2023-07-14T16:01:30.191Z,56.87
2023-07-14T16:02:28.122Z,55.83
2023-07-14T16:03:28.050Z,56.03
2023-07-14T16:04:27.996Z,55.44
2023-07-14T16:05:28.010Z,55.93
2023-07-14T16:06:28.001Z,55.83
2023-07-14T16:07:27.945Z,56.35
2023-07-14T16:08:27.931Z,55.40
2023-07-14T16:09:27.908Z,55.11
2023-07-14T16:10:27.898Z,54.55
2023-07-14T16:11:27.880Z,54.65
2023-07-14T16:12:27.893Z,54.82
2023-07-14T16:13:27.852Z,54.55
2023-07-14T16:14:27.832Z,54.36
2023-07-14T16:15:27.814Z,54.85
2023-07-14T16:16:27.819Z,54.16
2023-07-14T16:17:27.799Z,53.80
2023-07-14T16:18:27.764Z,53.80
2023-07-14T16:19:28.419Z,53.63
2023-07-14T16:20:27.736Z,54.11
2023-07-14T16:21:27.732Z,53.53
2023-07-14T16:22:27.711Z,54.19
2023-07-14T16:23:27.698Z,53.70
2023-07-14T16:24:27.667Z,53.41
2023-07-14T16:25:27.653Z,53.60
2023-07-14T16:26:27.636Z,53.53
2023-07-14T16:27:27.614Z,52.97
2023-07-14T16:28:27.597Z,53.53
2023-07-14T16:29:27.586Z,53.60
2023-07-14T16:30:27.571Z,53.58
2023-07-14T16:31:27.634Z,53.67
2023-07-14T16:32:27.603Z,54.43
2023-07-14T16:33:27.519Z,55.11
2023-07-14T16:34:27.498Z,55.66
2023-07-14T16:35:27.491Z,55.37
2023-07-14T16:36:27.464Z,55.93
2023-07-14T16:37:27.463Z,56.20
2023-07-14T16:38:27.432Z,56.10
2023-07-14T16:39:27.415Z,56.10
2023-07-14T16:40:27.409Z,56.29
2023-07-14T16:41:27.426Z,55.93
2023-07-14T16:42:27.366Z,55.93
2023-07-14T16:43:27.349Z,56.12
2023-07-14T16:44:27.333Z,56.87
2023-07-14T16:45:27.312Z,57.07
2023-07-14T16:46:27.355Z,57.26
2023-07-14T16:47:27.297Z,57.23
2023-07-14T16:48:27.272Z,57.75
2023-07-14T16:49:27.254Z,57.46
2023-07-14T16:50:27.231Z,57.43
2023-07-14T16:51:27.227Z,57.53
2023-07-14T16:52:27.274Z,57.43
2023-07-14T16:53:27.199Z,57.82
2023-07-14T16:54:27.161Z,58.59
2023-07-14T16:55:27.150Z,58.40
2023-07-14T16:56:27.157Z,58.89
2023-07-14T16:57:27.111Z,58.11
2023-07-14T16:58:27.096Z,58.31
2023-07-14T16:59:27.079Z,57.82
2023-07-14T17:00:27.084Z,58.11
2023-07-14T17:01:27.102Z,57.89
2023-07-14T17:02:27.074Z,58.08
2023-07-14T17:03:27.014Z,58.08
2023-07-14T17:04:27.079Z,57.89
2023-07-14T17:05:26.980Z,58.57
2023-07-14T17:06:42.027Z,58.57
2023-07-14T17:07:26.949Z,58.47
2023-07-14T17:08:26.931Z,58.67
2023-07-14T17:09:26.917Z,58.47
2023-07-14T17:10:26.892Z,58.57
2023-07-14T17:11:26.874Z,58.86
2023-07-14T17:12:26.908Z,58.86
2023-07-14T17:13:27.305Z,58.37
2023-07-14T17:14:26.828Z,58.57
2023-07-14T17:15:26.816Z,58.95
2023-07-14T17:16:26.883Z,58.76
2023-07-14T17:17:26.856Z,58.37
2023-07-14T17:18:26.757Z,59.34
2023-07-14T17:19:26.750Z,58.95
2023-07-14T17:20:26.720Z,58.89
2023-07-14T17:21:26.704Z,58.21
2023-07-14T17:22:26.753Z,58.31
2023-07-14T17:23:26.673Z,57.62
2023-07-14T17:24:26.663Z,58.21
2023-07-14T17:25:26.639Z,58.11
2023-07-14T17:26:26.621Z,57.56
2023-07-14T17:27:26.614Z,57.17
2023-07-14T17:28:26.580Z,57.17
2023-07-14T17:29:26.570Z,57.00
2023-07-14T17:30:26.567Z,57.10
2023-07-14T17:31:26.608Z,56.45
2023-07-14T17:32:26.525Z,56.05
2023-07-14T17:33:26.507Z,55.86
2023-07-14T17:34:26.480Z,55.89
2023-07-14T17:35:26.467Z,55.60
2023-07-14T17:36:26.451Z,54.91
2023-07-14T17:37:26.432Z,55.21
2023-07-14T17:38:26.414Z,55.30
2023-07-14T17:39:45.568Z,55.01
2023-07-14T17:40:26.386Z,55.01
2023-07-14T17:41:26.404Z,55.11
2023-07-14T17:42:26.346Z,55.47
2023-07-14T17:43:26.346Z,55.89
2023-07-14T17:44:26.317Z,55.79
2023-07-14T17:45:26.298Z,55.30
2023-07-14T17:46:26.304Z,55.96
2023-07-14T17:47:26.282Z,55.66
2023-07-14T17:48:26.253Z,55.66
2023-07-14T17:49:26.232Z,55.86
2023-07-14T17:50:26.218Z,56.35
2023-07-14T17:51:26.200Z,55.76
2023-07-14T17:52:26.192Z,55.76
2023-07-14T17:53:26.172Z,55.96
2023-07-14T17:54:26.186Z,56.12
2023-07-14T17:55:26.144Z,56.05
2023-07-14T17:56:26.121Z,56.15
2023-07-14T17:57:26.109Z,56.51
2023-07-14T17:58:26.153Z,56.22
2023-07-14T17:59:26.109Z,56.25
2023-07-14T18:00:26.064Z,55.86
2023-07-14T18:01:26.114Z,56.05
2023-07-14T18:02:26.112Z,55.96
2023-07-14T18:03:26.214Z,56.54
2023-07-14T18:04:25.992Z,56.05
2023-07-14T18:05:25.978Z,56.32
2023-07-14T18:06:25.963Z,56.41
2023-07-14T18:07:25.955Z,57.07
2023-07-14T18:08:25.946Z,58.11
2023-07-14T18:09:25.917Z,58.69
2023-07-14T18:10:25.917Z,58.86
2023-07-14T18:11:26.312Z,59.34
2023-07-14T18:12:25.864Z,59.51
2023-07-14T18:13:25.847Z,59.51
2023-07-14T18:14:25.827Z,60.16
2023-07-14T18:15:25.823Z,60.38
2023-07-14T18:16:25.843Z,60.64
2023-07-14T18:17:25.856Z,60.55
2023-07-14T18:18:25.777Z,61.04
2023-07-14T18:19:25.749Z,60.94
2023-07-14T18:20:25.732Z,61.88
2023-07-14T18:21:25.716Z,61.88
2023-07-14T18:22:25.717Z,61.68
2023-07-14T18:23:25.680Z,61.78
2023-07-14T18:24:41.759Z,62.26
2023-07-14T18:25:25.653Z,62.07
2023-07-14T18:26:25.633Z,62.55
2023-07-14T18:27:25.631Z,62.85
2023-07-14T18:28:25.604Z,62.72
2023-07-14T18:29:25.594Z,62.75
2023-07-14T18:30:25.563Z,63.43
2023-07-14T18:31:25.638Z,63.20
2023-07-14T18:32:25.579Z,63.10
2023-07-14T18:33:25.518Z,62.91
2023-07-14T18:34:25.500Z,63.59
2023-07-14T18:35:25.481Z,63.69
2023-07-14T18:36:25.463Z,63.49
2023-07-14T18:37:25.451Z,63.40
2023-07-14T18:38:25.427Z,64.75
2023-07-14T18:39:25.410Z,67.27
2023-07-14T18:40:25.404Z,69.18
2023-07-14T18:41:27.018Z,69.76
2023-07-14T18:42:25.835Z,70.73
2023-07-14T18:43:25.345Z,71.28
2023-07-14T18:44:25.322Z,72.05
2023-07-14T18:45:25.303Z,72.73
2023-07-14T18:46:25.299Z,72.79
2023-07-14T18:47:25.305Z,72.79
2023-07-14T18:48:25.253Z,73.63
2023-07-14T18:49:25.234Z,73.43
2023-07-14T18:50:25.217Z,73.63
2023-07-14T18:51:25.200Z,74.30
2023-07-14T18:52:25.191Z,74.11
2023-07-14T18:53:25.161Z,74.69
2023-07-14T18:54:25.145Z,75.56
2023-07-14T18:55:25.130Z,75.43
2023-07-14T18:56:25.107Z,75.23
2023-07-14T18:57:25.097Z,75.43
2023-07-14T18:58:25.071Z,75.91
2023-07-14T18:59:25.055Z,76.93
2023-07-14T19:00:25.039Z,77.71
2023-07-14T19:01:25.087Z,78.06
2023-07-14T19:02:24.997Z,78.15
2023-07-14T19:03:27.142Z,78.73
2023-07-14T19:04:24.962Z,78.89
2023-07-14T19:05:24.940Z,78.59
2023-07-14T19:06:24.924Z,78.83
2023-07-14T19:07:24.909Z,79.60
2023-07-14T19:08:24.939Z,79.37
2023-07-14T19:09:24.864Z,79.27
2023-07-14T19:10:24.845Z,80.24
2023-07-14T19:11:24.939Z,80.53
2023-07-14T19:12:24.819Z,80.72
2023-07-14T19:13:24.838Z,80.78
2023-07-14T19:14:24.810Z,80.39
2023-07-14T19:15:24.778Z,80.49
2023-07-14T19:16:24.840Z,81.16
2023-07-14T19:17:28.311Z,81.35
2023-07-14T19:18:24.731Z,81.12
2023-07-14T19:19:24.683Z,81.51
2023-07-14T19:20:24.689Z,81.32
2023-07-14T19:21:24.637Z,81.99
2023-07-14T19:22:24.679Z,82.18
2023-07-14T19:23:24.605Z,81.99
2023-07-14T19:24:24.581Z,82.48
2023-07-14T19:25:24.562Z,82.43
2023-07-14T19:26:24.542Z,82.34
2023-07-14T19:27:24.526Z,83.01
2023-07-14T19:28:24.509Z,82.92
2023-07-14T19:29:24.499Z,83.59
2023-07-14T19:30:24.489Z,83.55
2023-07-14T19:31:24.478Z,84.22
2023-07-14T19:32:26.446Z,84.32
2023-07-14T19:33:24.399Z,84.70
2023-07-14T19:34:24.388Z,85.09
2023-07-14T19:35:24.381Z,84.90
2023-07-14T19:36:24.352Z,84.99
2023-07-14T19:37:24.323Z,85.57
2023-07-14T19:38:24.304Z,85.47
2023-07-14T19:39:24.298Z,86.11
2023-07-14T19:40:24.262Z,86.11
2023-07-14T19:41:24.244Z,87.46
2023-07-14T19:42:24.232Z,86.88
2023-07-14T19:43:24.208Z,87.12
2023-07-14T19:44:24.197Z,87.90
2023-07-14T19:45:24.162Z,87.60
2023-07-14T19:46:24.194Z,87.84
2023-07-14T19:47:24.196Z,88.09
2023-07-14T19:48:24.098Z,87.90
2023-07-14T19:49:24.103Z,87.70
2023-07-14T19:50:24.111Z,87.80
2023-07-14T19:51:24.044Z,87.80
2023-07-14T19:52:24.022Z,88.09
2023-07-14T19:53:23.997Z,88.09
2023-07-14T19:54:23.972Z,88.09
2023-07-14T19:55:23.976Z,88.38
2023-07-14T19:56:23.942Z,88.47
2023-07-14T19:57:23.922Z,88.47
2023-07-14T19:58:23.895Z,88.95
2023-07-14T19:59:23.943Z,89.20
2023-07-14T20:00:23.848Z,88.81
2023-07-14T20:01:23.899Z,88.91
2023-07-14T20:02:23.864Z,88.91
2023-07-14T20:03:23.789Z,88.81
2023-07-14T20:04:23.850Z,89.01
2023-07-14T20:05:23.746Z,89.01
2023-07-14T20:06:23.757Z,89.78
2023-07-14T20:07:23.840Z,89.87
2023-07-14T20:08:23.680Z,89.58
2023-07-14T20:09:23.662Z,89.39
2023-07-14T20:10:23.636Z,89.58
2023-07-14T20:11:23.613Z,89.97
2023-07-14T20:12:23.594Z,90.16
2023-07-14T20:13:23.614Z,90.35
2023-07-14T20:14:23.545Z,90.35
2023-07-14T20:15:24.145Z,90.26